Time;durP1;ratioP1;P1;durP2;ratioP2;P2;SDS_P1;SDS_P2;PMS_P1;PMS_P2;Temp;Humidity;BMP_temperature;BMP_pressure;BME280_temperature;BME280_humidity;BME280_pressure;Samples;Min_cycle;Max_cycle;Signal;HPM_P1;HPM_P2
2022/11/02 00:00:43;;;;;;;20.63;14.40;;;17.50;91.70;;;;;;5107891;28;20040;-89
2022/11/02 00:03:08;;;;;;;22.42;13.93;;;17.40;91.60;;;;;;5086951;28;20024;-88
2022/11/02 00:05:34;;;;;;;24.58;12.93;;;17.40;91.40;;;;;;5099793;28;20425;-89
2022/11/02 00:08:00;;;;;;;21.45;12.93;;;17.40;91.20;;;;;;5101417;28;20028;-90
2022/11/02 00:10:26;;;;;;;24.65;13.23;;;17.30;91.10;;;;;;5110117;28;20027;-86
2022/11/02 00:12:52;;;;;;;20.40;12.50;;;17.30;91.00;;;;;;5108775;28;20480;-88
2022/11/02 00:15:18;;;;;;;23.92;12.65;;;17.30;91.00;;;;;;5091366;28;20028;-87
2022/11/02 00:17:48;;;;;;;21.42;12.93;;;17.20;90.80;;;;;;5106334;28;20052;-88
2022/11/02 00:20:17;;;;;;;21.38;13.02;;;17.20;90.80;;;;;;5090464;28;20028;-90
2022/11/02 00:22:44;;;;;;;17.38;12.25;;;17.20;90.60;;;;;;5089278;28;20024;-88
2022/11/02 00:25:12;;;;;;;26.92;12.60;;;17.20;90.60;;;;;;5110849;28;20076;-87
2022/11/02 00:27:39;;;;;;;18.05;11.85;;;17.20;90.50;;;;;;5107853;28;20016;-87
2022/11/02 00:30:05;;;;;;;16.98;11.45;;;17.20;90.30;;;;;;5094303;28;20192;-86
2022/11/02 00:32:31;;;;;;;19.80;11.55;;;17.20;90.20;;;;;;5110939;28;20098;-87
2022/11/02 00:34:57;;;;;;;22.08;12.05;;;17.10;90.00;;;;;;5114050;28;20020;-86
2022/11/02 00:37:22;;;;;;;21.55;12.02;;;17.00;90.00;;;;;;5096940;28;20097;-90
2022/11/02 00:39:48;;;;;;;23.05;12.25;;;17.00;90.10;;;;;;5099937;28;19996;-87
2022/11/02 00:42:14;;;;;;;22.23;12.02;;;16.90;90.00;;;;;;5100353;28;20037;-89
2022/11/02 00:44:40;;;;;;;23.45;12.13;;;16.90;90.00;;;;;;5099106;28;20044;-88
2022/11/02 00:47:06;;;;;;;20.48;11.88;;;16.90;90.00;;;;;;5092763;28;20032;-90
2022/11/02 00:49:32;;;;;;;18.88;11.23;;;16.90;90.00;;;;;;5108509;28;20027;-86
2022/11/02 00:51:58;;;;;;;19.05;11.63;;;16.90;90.00;;;;;;5091355;28;20097;-88
2022/11/02 00:54:23;;;;;;;18.30;11.48;;;16.90;90.10;;;;;;5090417;28;20424;-88
2022/11/02 00:56:49;;;;;;;18.58;11.43;;;16.90;90.00;;;;;;5109393;28;20054;-87
2022/11/02 00:59:15;;;;;;;21.88;12.68;;;16.80;90.00;;;;;;5111844;28;20028;-87
2022/11/02 01:01:46;;;;;;;17.17;11.57;;;16.80;90.00;;;;;;5092561;28;20027;-86
2022/11/02 01:04:13;;;;;;;19.45;12.00;;;16.80;90.10;;;;;;5090166;28;20091;-88
2022/11/02 01:06:39;;;;;;;21.73;12.02;;;16.80;90.00;;;;;;5108225;28;20095;-87
2022/11/02 01:09:04;;;;;;;24.55;12.30;;;16.70;90.00;;;;;;5085925;28;20042;-87
2022/11/02 01:11:30;;;;;;;24.38;12.15;;;16.70;90.00;;;;;;5100913;28;20039;-87
2022/11/02 01:13:56;;;;;;;19.88;11.95;;;16.60;90.00;;;;;;5085507;28;20123;-85
2022/11/02 01:16:22;;;;;;;23.88;12.75;;;16.60;90.00;;;;;;5089425;28;20373;-87
2022/11/02 01:18:54;;;;;;;22.98;14.48;;;16.60;90.10;;;;;;5113627;28;20035;-88
2022/11/02 01:21:21;;;;;;;21.48;14.45;;;16.60;90.30;;;;;;5112596;28;20027;-87
2022/11/02 01:23:46;;;;;;;23.40;13.52;;;16.60;90.10;;;;;;5105394;28;20023;-88
2022/11/02 01:26:13;;;;;;;22.92;13.32;;;16.70;90.20;;;;;;5105480;28;20022;-89
2022/11/02 01:28:39;;;;;;;20.92;13.23;;;16.60;90.10;;;;;;5107847;28;20095;-86
2022/11/02 01:31:06;;;;;;;20.42;13.35;;;16.60;90.10;;;;;;5126025;28;20531;-88
2022/11/02 01:33:32;;;;;;;21.17;13.57;;;16.60;90.20;;;;;;5107478;28;20027;-87
2022/11/02 01:35:58;;;;;;;31.17;13.90;;;16.60;90.30;;;;;;5104046;28;20073;-88
2022/11/02 01:38:24;;;;;;;20.63;13.35;;;16.60;90.20;;;;;;5122250;28;20055;-86
2022/11/02 01:40:50;;;;;;;24.67;13.70;;;16.60;90.20;;;;;;5121481;28;20024;-86
2022/11/02 01:43:29;;;;;;;25.80;13.73;;;16.60;90.30;;;;;;5102915;28;20057;-87
2022/11/02 01:45:59;;;;;;;24.13;13.88;;;16.60;90.40;;;;;;5107289;28;20054;-87
2022/11/02 01:48:36;;;;;;;21.58;12.15;;;16.50;90.00;;;;;;5127311;28;20080;-87
2022/11/02 01:51:06;;;;;;;17.92;11.73;;;16.40;90.20;;;;;;5131123;28;20034;-87
2022/11/02 01:53:34;;;;;;;22.65;12.75;;;16.30;89.90;;;;;;5126517;28;20023;-88
2022/11/02 01:56:01;;;;;;;19.77;12.18;;;16.20;90.00;;;;;;5126548;28;20050;-87
2022/11/02 01:58:27;;;;;;;20.88;12.43;;;16.10;89.90;;;;;;5124170;28;20045;-86
2022/11/02 02:00:54;;;;;;;16.83;11.70;;;16.10;90.10;;;;;;5115052;28;20130;-88
2022/11/02 02:03:20;;;;;;;23.30;11.30;;;16.20;90.10;;;;;;5130365;28;20024;-88
2022/11/02 02:05:56;;;;;;;25.67;12.35;;;16.20;90.00;;;;;;5133298;28;20071;-86
2022/11/02 02:08:24;;;;;;;20.20;12.07;;;16.10;90.10;;;;;;5132384;28;20130;-88
2022/11/02 02:10:50;;;;;;;20.42;13.07;;;16.10;90.00;;;;;;5113744;28;20043;-87
2022/11/02 02:13:17;;;;;;;20.67;12.68;;;16.10;90.00;;;;;;5129854;28;20026;-88
2022/11/02 02:15:42;;;;;;;20.63;13.10;;;16.10;89.90;;;;;;5130268;28;20072;-88
2022/11/02 02:18:43;;;;;;;20.63;12.68;;;16.10;90.00;;;;;;5129065;28;20042;-87
2022/11/02 02:21:28;;;;;;;20.88;13.52;;;16.10;89.80;;;;;;5101277;28;20034;-86
2022/11/02 02:24:18;;;;;;;18.92;13.07;;;16.10;90.20;;;;;;5130773;28;20098;-89
2022/11/02 02:27:01;;;;;;;25.48;13.77;;;16.10;90.10;;;;;;5131198;28;20450;-89
2022/11/02 02:29:38;;;;;;;18.20;13.05;;;16.10;90.20;;;;;;5133260;28;20047;-89
2022/11/02 02:32:18;;;;;;;21.70;13.88;;;16.10;90.30;;;;;;5133774;28;20031;-88
2022/11/02 02:34:57;;;;;;;21.75;13.38;;;16.10;90.00;;;;;;5134506;28;20048;-86
2022/11/02 02:37:35;;;;;;;20.30;13.43;;;16.20;89.80;;;;;;5135440;28;20040;-86
2022/11/02 02:40:13;;;;;;;18.77;13.38;;;16.20;89.70;;;;;;5134044;28;20073;-87
2022/11/02 02:42:57;;;;;;;22.38;13.38;;;16.20;90.10;;;;;;5131589;28;20061;-87
2022/11/02 02:45:46;;;;;;;22.58;13.25;;;16.20;89.70;;;;;;5132190;28;20034;-88
2022/11/02 02:48:15;;;;;;;20.38;12.52;;;16.20;89.50;;;;;;5135127;28;20023;-86
2022/11/02 02:50:54;;;;;;;23.30;12.98;;;16.20;89.60;;;;;;5137128;28;20020;-87
2022/11/02 02:53:28;;;;;;;19.95;12.77;;;16.20;90.00;;;;;;5134023;28;20020;-88
2022/11/02 02:55:57;;;;;;;20.08;12.20;;;16.20;89.30;;;;;;5116038;28;20028;-86
2022/11/02 02:58:30;;;;;;;18.02;11.50;;;16.20;89.10;;;;;;5114545;28;20110;-86
2022/11/02 03:00:58;;;;;;;22.33;11.85;;;16.20;89.10;;;;;;5131550;28;20034;-89
2022/11/02 03:03:27;;;;;;;19.40;11.30;;;16.20;89.10;;;;;;5130867;28;20031;-86
2022/11/02 03:06:08;;;;;;;20.88;11.13;;;16.20;89.00;;;;;;5110795;28;20387;-86
2022/11/02 03:08:37;;;;;;;19.58;10.95;;;16.30;89.20;;;;;;5111632;28;20084;-87
2022/11/02 03:11:18;;;;;;;23.05;11.40;;;16.30;88.30;;;;;;5113380;28;20027;-88
2022/11/02 03:14:28;;;;;;;24.85;11.05;;;16.30;88.10;;;;;;5117024;28;20024;-88
2022/11/02 03:17:15;;;;;;;19.40;10.77;;;16.30;88.70;;;;;;5051878;28;20595;-88
2022/11/02 03:20:02;;;;;;;19.45;10.88;;;16.30;88.30;;;;;;5128960;28;20038;-86
2022/11/02 03:22:39;;;;;;;15.30;10.63;;;16.20;88.10;;;;;;5133509;28;20034;-89
2022/11/02 03:25:29;;;;;;;17.42;10.18;;;16.20;88.20;;;;;;5114347;28;20043;-88
2022/11/02 03:28:15;;;;;;;18.15;11.00;;;16.20;87.60;;;;;;5114284;28;20020;-86
2022/11/02 03:30:46;;;;;;;18.63;12.52;;;16.30;88.10;;;;;;5114028;28;20081;-86
2022/11/02 03:33:31;;;;;;;22.13;12.73;;;16.20;87.40;;;;;;5114348;28;20510;-88
2022/11/02 03:36:13;;;;;;;22.88;13.93;;;16.20;88.10;;;;;;5132588;28;20024;-89
2022/11/02 03:38:54;;;;;;;21.98;15.07;;;16.30;88.00;;;;;;5130201;28;20057;-89
2022/11/02 03:41:23;;;;;;;22.08;16.10;;;16.20;88.00;;;;;;5114917;28;20051;-83
2022/11/02 03:43:54;;;;;;;26.65;16.35;;;16.20;87.50;;;;;;5134324;28;20030;-89
2022/11/02 03:46:21;;;;;;;26.77;16.88;;;16.20;87.60;;;;;;5134550;28;20132;-88
2022/11/02 03:48:49;;;;;;;25.80;15.35;;;16.20;87.50;;;;;;5133189;28;20105;-90
2022/11/02 03:51:21;;;;;;;23.88;13.13;;;16.20;87.70;;;;;;5100313;28;20019;-88
2022/11/02 03:53:52;;;;;;;27.42;13.85;;;16.20;87.40;;;;;;5131249;28;20032;-88
2022/11/02 03:56:34;;;;;;;20.38;11.50;;;16.20;87.30;;;;;;5121800;28;20027;-91
2022/11/02 03:59:00;;;;;;;18.73;10.50;;;16.20;86.90;;;;;;5118730;28;20039;-90
2022/11/02 04:01:27;;;;;;;14.35;9.90;;;16.10;87.10;;;;;;5118479;28;20364;-88
2022/11/02 04:03:53;;;;;;;20.20;9.93;;;16.10;86.90;;;;;;5119916;28;20489;-89
2022/11/02 04:06:19;;;;;;;20.17;9.63;;;16.10;87.00;;;;;;5118697;28;20012;-88
2022/11/02 04:08:47;;;;;;;18.52;9.85;;;16.10;86.80;;;;;;5118529;28;20364;-89
2022/11/02 04:16:42;;;;;;;16.65;8.77;;;16.10;87.10;;;;;;5131933;28;20038;-88
2022/11/02 04:19:27;;;;;;;19.13;9.32;;;16.20;86.80;;;;;;5126176;28;20118;-88
2022/11/02 04:25:21;;;;;;;15.02;9.13;;;16.20;86.40;;;;;;5126519;28;20057;-90
2022/11/02 04:27:28;;;;;;;19.35;9.55;;;16.20;86.40;;;;;;5112633;28;20038;-89
2022/11/02 04:29:53;;;;;;;17.00;8.93;;;16.10;86.50;;;;;;5116637;28;20024;-88
2022/11/02 04:35:04;;;;;;;19.55;9.50;;;16.10;86.80;;;;;;5121990;28;20167;-84
2022/11/02 04:40:16;;;;;;;16.00;8.48;;;16.20;86.30;;;;;;5073347;28;20027;-90
2022/11/02 04:42:45;;;;;;;13.48;8.43;;;16.20;86.00;;;;;;5096782;28;20020;-91
2022/11/02 04:45:11;;;;;;;16.95;8.82;;;16.20;86.10;;;;;;5113292;28;20067;-85
2022/11/02 04:47:37;;;;;;;18.63;10.13;;;16.20;86.10;;;;;;5113231;28;20028;-87
2022/11/02 04:50:03;;;;;;;15.27;8.77;;;16.20;86.10;;;;;;5114974;28;20447;-88
2022/11/02 04:52:29;;;;;;;18.67;9.50;;;16.20;86.30;;;;;;5096588;28;20118;-92
2022/11/02 04:54:54;;;;;;;17.63;9.48;;;16.20;86.40;;;;;;5096505;28;20030;-91
2022/11/02 04:57:20;;;;;;;19.38;9.43;;;16.20;86.20;;;;;;5075516;28;20556;-90
2022/11/02 04:59:46;;;;;;;15.98;9.40;;;16.20;86.30;;;;;;5094496;28;20027;-88
2022/11/02 05:02:11;;;;;;;15.20;8.90;;;16.20;86.30;;;;;;5076105;28;20052;-90
2022/11/02 05:04:37;;;;;;;18.83;9.27;;;16.20;86.20;;;;;;5093992;28;20380;-89
2022/11/02 05:07:06;;;;;;;18.45;9.40;;;16.20;86.10;;;;;;5075325;28;20024;-89
2022/11/02 05:09:32;;;;;;;16.48;9.35;;;16.20;86.30;;;;;;5075327;28;20369;-89
2022/11/02 05:11:58;;;;;;;15.43;9.00;;;16.10;86.20;;;;;;5088256;28;20051;-87
2022/11/02 05:14:23;;;;;;;15.85;8.98;;;16.10;86.30;;;;;;5072090;28;20028;-89
2022/11/02 05:16:49;;;;;;;20.30;10.00;;;16.10;86.40;;;;;;5073237;28;20141;-89
2022/11/02 05:19:15;;;;;;;18.55;9.65;;;16.10;86.30;;;;;;5075328;28;20131;-88
2022/11/02 05:21:40;;;;;;;13.05;8.57;;;16.10;86.30;;;;;;5076834;28;20025;-89
2022/11/02 05:24:06;;;;;;;14.68;8.98;;;16.10;86.30;;;;;;5077718;28;20051;-88
2022/11/02 05:26:32;;;;;;;16.55;9.23;;;16.00;86.20;;;;;;5077855;28;20541;-90
2022/11/02 05:28:58;;;;;;;18.73;9.05;;;16.00;86.30;;;;;;5076067;28;20044;-90
2022/11/02 05:31:23;;;;;;;15.57;9.02;;;16.00;86.40;;;;;;5077270;28;20345;-93
2022/11/02 05:33:49;;;;;;;15.43;8.60;;;16.00;86.40;;;;;;5077323;28;20095;-90
2022/11/02 05:36:15;;;;;;;17.00;8.60;;;15.90;86.30;;;;;;5076410;28;20032;-89
2022/11/02 05:38:41;;;;;;;13.95;7.63;;;15.90;86.30;;;;;;5078220;28;20090;-90
2022/11/02 05:41:08;;;;;;;17.80;8.75;;;15.80;86.30;;;;;;5076332;28;20021;-89
2022/11/02 05:43:34;;;;;;;15.52;8.90;;;15.80;86.10;;;;;;5077746;28;20444;-89
2022/11/02 05:46:01;;;;;;;17.73;8.70;;;15.80;86.30;;;;;;5079199;28;20052;-89
2022/11/02 05:48:30;;;;;;;13.43;8.20;;;15.70;86.10;;;;;;5083152;28;20476;-88
2022/11/02 05:51:00;;;;;;;15.60;8.38;;;15.70;85.90;;;;;;5084783;28;20120;-87
2022/11/02 05:53:30;;;;;;;14.65;7.50;;;15.70;86.20;;;;;;5081752;28;20515;-90
2022/11/02 05:56:00;;;;;;;15.57;8.40;;;15.70;86.00;;;;;;5080895;28;20028;-89
2022/11/02 05:58:27;;;;;;;16.77;7.78;;;15.80;86.00;;;;;;5084025;28;20052;-89
2022/11/02 06:00:53;;;;;;;13.15;8.25;;;15.70;86.00;;;;;;5085571;28;20103;-89
2022/11/02 06:03:19;;;;;;;16.70;8.20;;;15.80;85.90;;;;;;5088830;28;20038;-89
2022/11/02 06:05:45;;;;;;;16.15;8.13;;;15.80;85.80;;;;;;5095296;28;20026;-87
2022/11/02 06:08:11;;;;;;;14.52;8.18;;;15.80;85.80;;;;;;5093482;28;20080;-88
2022/11/02 06:10:37;;;;;;;15.70;7.72;;;15.80;85.90;;;;;;5091955;28;20025;-87
2022/11/02 06:13:03;;;;;;;15.98;7.93;;;15.90;85.60;;;;;;5090787;28;20027;-87
2022/11/02 06:15:30;;;;;;;20.60;8.35;;;15.90;85.40;;;;;;5092058;28;20392;-87
2022/11/02 06:17:56;;;;;;;15.10;8.25;;;16.00;85.40;;;;;;5094502;28;20068;-85
2022/11/02 06:20:22;;;;;;;17.15;8.73;;;16.00;85.20;;;;;;5096888;28;20032;-86
2022/11/02 06:22:48;;;;;;;16.75;8.68;;;16.00;85.10;;;;;;5094445;28;20024;-88
2022/11/02 06:25:14;;;;;;;17.90;8.70;;;16.00;85.20;;;;;;5094004;28;20017;-89
2022/11/02 06:27:43;;;;;;;24.70;12.48;;;16.10;85.20;;;;;;5094224;28;20032;-86
2022/11/02 06:30:09;;;;;;;16.15;8.77;;;16.10;85.20;;;;;;5092485;28;20025;-86
2022/11/02 06:32:34;;;;;;;14.68;7.93;;;16.20;84.90;;;;;;5094443;28;20017;-87
2022/11/02 06:35:00;;;;;;;21.15;8.88;;;16.30;84.70;;;;;;5094835;28;20096;-87
2022/11/02 06:37:26;;;;;;;18.75;8.60;;;16.30;84.50;;;;;;5093664;28;20035;-88
2022/11/02 06:39:52;;;;;;;19.52;8.70;;;16.40;84.50;;;;;;5094932;28;20005;-87
2022/11/02 06:42:17;;;;;;;17.25;8.27;;;16.40;84.10;;;;;;5094906;28;20051;-86
2022/11/02 06:44:43;;;;;;;18.73;8.85;;;16.40;84.20;;;;;;5091933;28;20036;-89
2022/11/02 06:47:09;;;;;;;18.30;8.38;;;16.40;84.20;;;;;;5099090;28;20019;-84
2022/11/02 06:49:34;;;;;;;18.95;8.75;;;16.50;84.20;;;;;;5099033;28;20043;-86
2022/11/02 06:52:00;;;;;;;14.70;9.05;;;16.50;83.90;;;;;;5096322;28;20021;-88
2022/11/02 06:54:26;;;;;;;15.70;8.80;;;16.50;83.90;;;;;;5096017;28;20044;-86
2022/11/02 06:56:51;;;;;;;17.27;8.23;;;16.60;83.70;;;;;;5093935;28;20109;-87
2022/11/02 06:59:17;;;;;;;17.50;8.50;;;16.60;83.60;;;;;;5083856;28;20020;-87
2022/11/02 07:01:43;;;;;;;21.33;9.05;;;16.70;83.40;;;;;;5091487;28;20028;-84
2022/11/02 07:04:08;;;;;;;13.15;7.90;;;16.70;83.40;;;;;;5079689;28;20035;-80
2022/11/02 07:06:34;;;;;;;18.77;9.02;;;16.70;83.10;;;;;;5076427;28;20035;-78
2022/11/02 07:09:00;;;;;;;18.30;8.35;;;16.70;82.90;;;;;;5076133;28;20028;-79
2022/11/02 07:11:25;;;;;;;18.67;8.75;;;16.70;82.90;;;;;;5095559;28;20028;-82
2022/11/02 07:13:51;;;;;;;18.98;9.18;;;16.70;82.70;;;;;;5076880;28;20020;-84
2022/11/02 07:16:17;;;;;;;16.80;8.48;;;16.80;82.70;;;;;;5076682;28;20107;-80
2022/11/02 07:18:42;;;;;;;18.65;8.65;;;16.80;82.80;;;;;;5094007;28;20032;-80
2022/11/02 07:21:10;;;;;;;19.67;8.82;;;16.80;82.40;;;;;;5094329;28;20020;-81
2022/11/02 07:23:36;;;;;;;13.75;7.90;;;16.90;82.50;;;;;;5075933;28;20028;-83
2022/11/02 07:26:03;;;;;;;22.08;8.68;;;16.90;82.10;;;;;;5076449;28;20121;-80
2022/11/02 07:28:29;;;;;;;17.65;8.95;;;17.00;82.00;;;;;;5094070;28;20052;-83
2022/11/02 07:30:55;;;;;;;20.35;9.23;;;17.10;81.70;;;;;;5094220;28;20437;-82
2022/11/02 07:33:20;;;;;;;16.33;8.63;;;17.10;81.60;;;;;;5093376;28;20023;-81
2022/11/02 07:35:46;;;;;;;21.85;8.82;;;17.20;81.50;;;;;;5093884;28;20109;-81
2022/11/02 07:38:12;;;;;;;18.50;9.05;;;17.20;81.20;;;;;;5093774;28;20411;-81
2022/11/02 07:40:38;;;;;;;19.77;8.93;;;17.20;80.90;;;;;;5093811;28;20055;-82
2022/11/02 07:43:04;;;;;;;17.48;9.20;;;17.30;80.80;;;;;;5075387;28;20074;-79
2022/11/02 07:45:30;;;;;;;20.15;9.27;;;17.30;80.80;;;;;;5094278;28;20035;-83
2022/11/02 07:47:56;;;;;;;21.38;7.97;;;17.30;80.60;;;;;;5094448;28;20051;-81
2022/11/02 07:50:25;;;;;;;19.25;9.40;;;17.40;79.90;;;;;;5094591;28;20412;-82
2022/11/02 07:52:53;;;;;;;15.68;8.40;;;17.50;79.60;;;;;;5075490;28;20036;-82
2022/11/02 07:55:22;;;;;;;26.20;9.27;;;17.60;79.10;;;;;;5093702;28;20529;-82
2022/11/02 07:57:58;;;;;;;20.40;8.48;;;17.60;78.90;;;;;;5093937;28;20143;-82
2022/11/02 08:00:24;;;;;;;24.58;8.35;;;17.60;78.90;;;;;;5075861;28;20405;-79
2022/11/02 08:02:57;;;;;;;13.63;8.18;;;17.70;78.30;;;;;;5093793;28;20039;-81
2022/11/02 08:05:24;;;;;;;19.55;7.07;;;17.80;78.00;;;;;;5074731;28;20023;-81
2022/11/02 08:08:01;;;;;;;24.95;8.45;;;17.80;77.80;;;;;;5074782;28;20433;-81
2022/11/02 08:10:28;;;;;;;21.63;8.57;;;17.90;77.20;;;;;;5093549;28;20492;-83
2022/11/02 08:12:55;;;;;;;16.98;8.13;;;18.00;77.20;;;;;;5093836;28;20043;-80
2022/11/02 08:15:20;;;;;;;20.38;7.97;;;18.00;76.80;;;;;;5094084;28;20031;-82
2022/11/02 08:17:46;;;;;;;14.98;7.93;;;18.10;76.60;;;;;;5095426;28;20036;-82
2022/11/02 08:20:12;;;;;;;22.42;7.95;;;18.20;76.40;;;;;;5097148;28;20032;-81
2022/11/02 08:22:39;;;;;;;18.08;8.57;;;18.20;76.30;;;;;;5094944;28;20380;-81
2022/11/02 08:25:07;;;;;;;21.23;8.73;;;18.30;76.00;;;;;;5093747;28;20035;-80
2022/11/02 08:27:32;;;;;;;16.23;8.63;;;18.40;75.80;;;;;;5095404;28;20063;-79
2022/11/02 08:29:58;;;;;;;18.98;8.38;;;18.40;75.40;;;;;;5080041;28;20020;-81
2022/11/02 08:32:24;;;;;;;20.52;8.95;;;18.50;75.50;;;;;;5075186;28;20195;-80
2022/11/02 08:34:49;;;;;;;22.13;8.73;;;18.50;75.40;;;;;;5093470;28;20028;-79
2022/11/02 08:37:15;;;;;;;20.02;8.82;;;18.60;75.40;;;;;;5092662;28;20036;-81
2022/11/02 08:39:41;;;;;;;20.35;8.88;;;18.60;75.20;;;;;;5093709;28;20045;-82
2022/11/02 08:42:07;;;;;;;23.50;9.52;;;18.70;75.10;;;;;;5093379;28;20371;-81
2022/11/02 08:44:32;;;;;;;22.38;10.13;;;18.70;75.20;;;;;;5074950;28;20035;-71
2022/11/02 08:46:58;;;;;;;23.77;9.93;;;18.70;75.10;;;;;;5074819;28;20471;-72
2022/11/02 08:49:23;;;;;;;29.95;10.38;;;18.80;75.50;;;;;;5092907;28;20059;-72
2022/11/02 08:51:49;;;;;;;19.83;10.32;;;18.80;75.20;;;;;;5093516;28;20098;-72
2022/11/02 08:54:15;;;;;;;24.63;9.60;;;18.90;76.00;;;;;;5092933;28;20054;-71
2022/11/02 08:56:41;;;;;;;24.52;10.40;;;18.90;75.40;;;;;;5092754;28;20052;-72
2022/11/02 08:59:07;;;;;;;24.40;10.02;;;18.90;75.10;;;;;;5093147;28;20110;-72
2022/11/02 09:01:33;;;;;;;27.70;11.25;;;19.00;75.00;;;;;;5074649;28;20016;-73
2022/11/02 09:03:59;;;;;;;24.95;10.98;;;19.00;74.80;;;;;;5074814;28;20024;-72
2022/11/02 09:06:24;;;;;;;24.80;11.70;;;19.00;74.90;;;;;;5092804;28;20031;-70
2022/11/02 09:08:50;;;;;;;33.67;11.55;;;19.10;74.90;;;;;;5074989;28;20027;-72
2022/11/02 09:11:16;;;;;;;27.27;12.27;;;19.20;74.70;;;;;;5074894;28;20056;-73
2022/11/02 09:13:41;;;;;;;23.73;11.43;;;19.30;74.50;;;;;;5092747;28;20414;-73
2022/11/02 09:16:07;;;;;;;20.55;11.02;;;19.40;74.20;;;;;;5092663;28;20024;-71
2022/11/02 09:18:33;;;;;;;26.33;11.32;;;19.50;74.10;;;;;;5092651;28;20040;-71
2022/11/02 09:21:03;;;;;;;22.92;12.15;;;19.60;73.90;;;;;;5092718;28;20024;-72
2022/11/02 09:23:29;;;;;;;18.52;11.45;;;19.70;73.70;;;;;;5074389;28;20024;-72
2022/11/02 09:25:56;;;;;;;19.63;11.18;;;19.70;73.80;;;;;;5092606;28;20035;-71
2022/11/02 09:28:22;;;;;;;25.65;12.63;;;19.80;73.60;;;;;;5074270;28;20020;-73
2022/11/02 09:30:47;;;;;;;23.70;12.68;;;19.90;73.30;;;;;;5092481;28;20119;-72
2022/11/02 09:33:13;;;;;;;26.67;13.18;;;20.00;73.40;;;;;;5074603;28;20051;-72
2022/11/02 09:35:41;;;;;;;24.25;11.70;;;20.10;73.30;;;;;;5092214;28;20380;-72
2022/11/02 09:38:07;;;;;;;24.85;12.18;;;20.20;73.30;;;;;;5092085;28;20032;-73
2022/11/02 09:40:39;;;;;;;27.80;13.07;;;20.20;73.30;;;;;;5074254;28;20090;-72
2022/11/02 09:43:11;;;;;;;21.13;12.35;;;20.30;73.30;;;;;;5092514;28;20020;-73
2022/11/02 09:45:54;;;;;;;26.30;13.02;;;20.40;73.90;;;;;;5092367;28;20488;-73
2022/11/02 09:48:40;;;;;;;22.95;12.18;;;20.50;73.00;;;;;;5092947;28;20082;-72
2022/11/02 09:51:26;;;;;;;25.17;13.18;;;20.60;72.90;;;;;;5092750;28;20028;-72
2022/11/02 09:54:17;;;;;;;21.45;12.90;;;20.70;73.60;;;;;;5092329;28;20048;-70
2022/11/02 09:56:44;;;;;;;24.80;12.57;;;20.70;73.40;;;;;;5092251;28;20399;-72
2022/11/02 09:59:18;;;;;;;24.52;12.52;;;20.80;72.80;;;;;;5092529;28;20031;-72
2022/11/02 10:01:54;;;;;;;29.45;14.10;;;20.90;73.10;;;;;;5092192;28;20066;-72
2022/11/02 10:04:47;;;;;;;23.52;11.55;;;21.00;72.90;;;;;;5074206;28;20070;-71
2022/11/02 10:07:34;;;;;;;24.83;11.82;;;21.10;72.70;;;;;;5095498;28;20028;-72
2022/11/02 10:10:21;;;;;;;22.45;11.80;;;21.10;72.50;;;;;;5095850;28;20020;-73
2022/11/02 10:13:15;;;;;;;17.58;10.57;;;21.20;72.60;;;;;;5095493;28;20032;-73
2022/11/02 10:15:50;;;;;;;18.02;10.35;;;21.30;72.80;;;;;;5095423;28;20029;-72
2022/11/02 10:18:22;;;;;;;17.40;10.85;;;21.40;72.90;;;;;;5095478;28;20059;-74
2022/11/02 10:20:54;;;;;;;13.63;8.18;;;21.40;72.80;;;;;;5095500;28;20049;-73
2022/11/02 10:23:51;;;;;;;11.73;6.60;;;21.40;72.70;;;;;;5077041;28;20035;-72
2022/11/02 10:26:31;;;;;;;14.02;6.32;;;21.30;73.30;;;;;;5077118;28;20046;-70
2022/11/02 10:29:01;;;;;;;15.13;6.70;;;21.30;73.80;;;;;;5095171;28;20418;-75
2022/11/02 10:31:33;;;;;;;15.07;7.05;;;21.30;73.80;;;;;;5095767;28;20472;-72
2022/11/02 10:34:14;;;;;;;10.32;5.57;;;21.30;73.40;;;;;;5095002;28;20069;-73
2022/11/02 10:37:18;;;;;;;12.85;6.43;;;21.30;73.90;;;;;;5077184;28;20464;-73
2022/11/02 10:39:50;;;;;;;13.32;6.25;;;21.30;73.80;;;;;;5083889;28;20036;-72
2022/11/02 10:42:47;;;;;;;17.65;6.78;;;21.30;74.00;;;;;;5076637;28;20024;-71
2022/11/02 10:45:36;;;;;;;16.13;8.82;;;21.40;73.90;;;;;;5076433;28;20027;-72
2022/11/02 10:48:24;;;;;;;17.83;9.35;;;21.60;73.40;;;;;;5076647;28;20039;-72
2022/11/02 10:51:16;;;;;;;17.75;9.45;;;21.70;72.70;;;;;;5095024;28;20028;-71
2022/11/02 10:53:48;;;;;;;16.33;7.30;;;21.80;72.50;;;;;;5076438;28;20396;-73
2022/11/02 10:56:28;;;;;;;14.98;7.13;;;22.00;72.50;;;;;;5094913;28;20100;-72
2022/11/02 10:59:10;;;;;;;12.25;7.93;;;22.10;71.70;;;;;;5076550;28;20431;-73
2022/11/02 11:01:36;;;;;;;12.18;7.10;;;22.20;71.10;;;;;;5076638;28;20410;-73
2022/11/02 11:04:18;;;;;;;17.10;7.90;;;22.20;71.60;;;;;;5094362;28;20035;-72
2022/11/02 11:06:44;;;;;;;15.70;7.63;;;22.30;71.60;;;;;;5094604;28;20031;-73
2022/11/02 11:09:18;;;;;;;16.83;8.30;;;22.30;71.50;;;;;;5094445;28;20383;-73
2022/11/02 11:12:03;;;;;;;12.45;7.00;;;22.40;70.20;;;;;;5094302;28;20039;-71
2022/11/02 11:14:36;;;;;;;15.57;8.52;;;22.50;71.30;;;;;;5076077;28;20229;-74
2022/11/02 11:17:12;;;;;;;;;;;22.50;70.90;;;;;;5076351;28;20036;-73
2022/11/02 11:19:45;;;;;;;14.70;7.47;;;22.50;70.80;;;;;;5094524;28;19904;-72
2022/11/02 11:22:23;;;;;;;12.95;6.97;;;22.50;71.00;;;;;;5076065;28;20030;-73
2022/11/02 11:24:49;;;;;;;12.13;6.28;;;22.60;69.90;;;;;;5094304;28;20020;-71
2022/11/02 11:27:18;;;;;;;13.77;6.50;;;22.70;70.50;;;;;;5094443;28;20116;-73
2022/11/02 11:29:54;;;;;;;15.95;7.00;;;22.80;70.50;;;;;;5094157;28;20093;-72
2022/11/02 11:32:28;;;;;;;20.98;7.25;;;22.90;70.30;;;;;;5094425;28;20031;-72
2022/11/02 11:34:59;;;;;;;13.82;6.68;;;22.90;70.00;;;;;;5093929;28;20035;-73
2022/11/02 11:37:25;;;;;;;12.38;6.18;;;22.80;69.00;;;;;;5093948;28;20032;-73
2022/11/02 11:39:57;;;;;;;18.10;6.60;;;22.90;69.40;;;;;;5094085;28;20100;-73
2022/11/02 11:42:27;;;;;;;13.45;5.88;;;23.00;68.90;;;;;;5075747;28;20484;-72
2022/11/02 11:45:16;;;;;;;20.02;6.10;;;23.00;68.50;;;;;;5093816;28;20039;-74
2022/11/02 11:47:42;;;;;;;13.07;5.63;;;23.10;68.20;;;;;;5094117;28;20020;-72
2022/11/02 11:50:16;;;;;;;14.38;6.82;;;23.20;68.00;;;;;;5094074;28;20031;-73
2022/11/02 11:52:42;;;;;;;13.75;6.38;;;23.30;68.30;;;;;;5094033;28;20024;-74
2022/11/02 11:55:27;;;;;;;16.27;5.40;;;23.30;67.90;;;;;;5093675;28;20028;-73
2022/11/02 11:58:05;;;;;;;13.82;5.53;;;23.30;66.80;;;;;;5093390;28;20043;-71
2022/11/02 12:00:31;;;;;;;13.27;5.38;;;23.40;67.00;;;;;;5075295;28;20032;-71
2022/11/02 12:03:05;;;;;;;19.58;5.43;;;23.50;67.30;;;;;;5075688;28;20056;-73
2022/11/02 12:05:41;;;;;;;9.40;5.47;;;23.40;67.90;;;;;;5075278;28;20112;-74
2022/11/02 12:08:54;;;;;;;12.48;5.20;;;23.30;67.30;;;;;;5075180;28;20025;-72
2022/11/02 12:11:32;;;;;;;13.18;5.25;;;23.20;64.90;;;;;;5031435;28;20044;-72
2022/11/02 12:14:01;;;;;;;10.35;5.00;;;23.20;66.60;;;;;;5093536;28;20028;-72
2022/11/02 12:16:32;;;;;;;11.20;4.78;;;23.20;66.20;;;;;;5093605;28;20024;-71
2022/11/02 12:19:20;;;;;;;11.75;4.85;;;23.30;64.90;;;;;;5093270;28;20059;-73
2022/11/02 12:22:00;;;;;;;13.98;6.22;;;23.40;66.00;;;;;;5075688;28;20028;-73
2022/11/02 12:24:29;;;;;;;10.63;5.32;;;23.40;64.30;;;;;;5093033;28;20387;-71
2022/11/02 12:27:19;;;;;;;12.10;5.85;;;23.40;64.40;;;;;;5093270;28;20030;-72
2022/11/02 12:29:48;;;;;;;17.05;5.75;;;23.40;64.60;;;;;;5093219;28;20028;-72
2022/11/02 12:32:33;;;;;;;16.85;5.90;;;23.20;64.70;;;;;;5074889;28;20091;-72
2022/11/02 12:35:19;;;;;;;8.75;5.38;;;23.20;64.70;;;;;;5093346;28;20035;-73
2022/11/02 12:38:13;;;;;;;11.48;5.15;;;23.30;65.30;;;;;;5074698;28;20051;-73
2022/11/02 12:40:57;;;;;;;11.68;5.07;;;23.20;65.10;;;;;;5074867;28;20043;-73
2022/11/02 12:43:32;;;;;;;10.63;4.75;;;23.30;65.60;;;;;;5093229;28;20024;-72
2022/11/02 12:46:12;;;;;;;12.02;4.97;;;23.30;64.50;;;;;;5093174;28;20069;-72
2022/11/02 12:48:56;;;;;;;10.15;5.03;;;23.40;63.10;;;;;;5074829;28;20035;-72
2022/11/02 12:51:31;;;;;;;11.05;4.68;;;23.40;63.30;;;;;;5093075;28;20032;-72
2022/11/02 12:53:59;;;;;;;10.65;4.20;;;23.40;63.50;;;;;;5092783;28;20073;-74
2022/11/02 12:56:44;;;;;;;7.25;3.75;;;23.40;63.40;;;;;;5074502;28;20028;-72
2022/11/02 12:59:31;;;;;;;11.38;4.13;;;23.40;62.60;;;;;;5092959;28;20040;-74
2022/11/02 13:02:12;;;;;;;7.35;3.80;;;23.40;61.80;;;;;;5093022;28;20028;-72
2022/11/02 13:04:52;;;;;;;11.23;3.50;;;23.50;60.90;;;;;;5074710;28;20512;-73
2022/11/02 13:07:24;;;;;;;8.52;3.90;;;23.60;60.30;;;;;;5092516;28;20025;-73